Time;durP1;ratioP1;P1;durP2;ratioP2;P2;SDS_P1;SDS_P2;PMS_P1;PMS_P2;Temp;Humidity;BMP_temperature;BMP_pressure;BME280_temperature;BME280_humidity;BME280_pressure;Samples;Min_cycle;Max_cycle;Signal;HPM_P1;HPM_P2
2022/06/20 00:01:00;;;;;;;12.90;2.83;;;17.90;99.90;;;;;;5044336;28;20463;-71
2022/06/20 00:03:29;;;;;;;11.02;2.50;;;17.90;99.90;;;;;;5044490;28;20367;-71
2022/06/20 00:05:56;;;;;;;7.88;2.25;;;17.90;99.90;;;;;;5042640;28;20033;-72
2022/06/20 00:08:21;;;;;;;13.80;2.65;;;18.00;99.90;;;;;;5045704;28;20017;-72
2022/06/20 00:10:48;;;;;;;12.25;2.80;;;18.00;99.90;;;;;;5045205;28;20021;-72
2022/06/20 00:13:34;;;;;;;12.43;2.63;;;18.00;99.90;;;;;;5046279;28;20053;-71
2022/06/20 00:16:01;;;;;;;12.35;3.10;;;17.90;99.90;;;;;;5042316;28;20044;-74
2022/06/20 00:18:28;;;;;;;11.45;2.78;;;18.00;99.90;;;;;;5044861;28;20017;-72
2022/06/20 00:20:54;;;;;;;13.27;2.80;;;18.00;99.90;;;;;;5044004;28;20540;-71
2022/06/20 00:23:19;;;;;;;12.55;2.88;;;18.00;99.90;;;;;;5043867;28;20096;-74
2022/06/20 00:25:45;;;;;;;9.77;2.78;;;17.90;99.90;;;;;;5047924;28;20117;-74
2022/06/20 00:28:13;;;;;;;9.88;2.63;;;18.00;99.90;;;;;;5045298;28;20071;-73
2022/06/20 00:30:39;;;;;;;10.65;2.90;;;18.00;99.90;;;;;;5043585;28;20025;-73
2022/06/20 00:33:05;;;;;;;10.68;2.67;;;18.00;99.90;;;;;;5045710;28;20033;-73
2022/06/20 00:35:33;;;;;;;10.95;3.30;;;18.00;99.90;;;;;;5046350;28;20014;-72
2022/06/20 00:38:01;;;;;;;8.07;2.50;;;18.00;99.90;;;;;;5045807;28;20021;-73
2022/06/20 00:40:39;;;;;;;14.80;3.38;;;18.00;99.90;;;;;;5045031;28;20122;-72
2022/06/20 00:43:08;;;;;;;13.95;3.30;;;18.00;99.90;;;;;;5045867;28;20035;-71
2022/06/20 00:45:45;;;;;;;11.55;2.60;;;18.00;99.90;;;;;;5043928;28;20031;-73
2022/06/20 00:48:28;;;;;;;7.05;2.67;;;18.00;99.90;;;;;;5044808;28;20021;-73
2022/06/20 00:50:58;;;;;;;14.80;3.05;;;18.00;99.90;;;;;;5044780;28;20013;-72
2022/06/20 00:53:43;;;;;;;9.90;3.13;;;17.90;99.90;;;;;;5043632;28;20355;-71
2022/06/20 00:56:23;;;;;;;13.23;2.88;;;18.00;99.90;;;;;;5043048;28;20032;-73
2022/06/20 00:58:57;;;;;;;11.50;2.97;;;18.00;99.90;;;;;;5043880;28;20112;-72
2022/06/20 01:01:31;;;;;;;12.13;3.30;;;17.60;99.90;;;;;;5043157;28;20544;-73
2022/06/20 01:04:03;;;;;;;9.63;2.90;;;17.60;99.90;;;;;;5045161;28;20033;-72
2022/06/20 01:06:33;;;;;;;10.25;2.85;;;17.60;99.90;;;;;;5043945;28;20374;-73
2022/06/20 01:09:07;;;;;;;11.60;2.80;;;17.50;99.90;;;;;;5043391;28;20037;-73
2022/06/20 01:11:43;;;;;;;11.98;2.72;;;17.20;99.90;;;;;;5044790;28;20355;-72
2022/06/20 01:14:23;;;;;;;11.57;3.53;;;17.00;99.90;;;;;;5043237;28;20033;-71
2022/06/20 01:16:52;;;;;;;12.38;2.83;;;16.90;99.90;;;;;;5043656;28;20024;-72
2022/06/20 01:19:33;;;;;;;12.77;3.00;;;17.10;99.90;;;;;;5043157;28;20036;-72
2022/06/20 01:22:03;;;;;;;10.43;3.17;;;17.20;99.90;;;;;;5042916;28;20025;-72
2022/06/20 01:24:44;;;;;;;9.98;3.08;;;17.30;99.90;;;;;;5044336;28;20079;-72
2022/06/20 01:27:18;;;;;;;10.45;3.15;;;17.20;99.90;;;;;;5043571;28;20029;-72
2022/06/20 01:29:45;;;;;;;12.73;3.30;;;17.20;99.90;;;;;;5043057;28;20090;-72
2022/06/20 01:32:11;;;;;;;12.00;2.97;;;17.10;99.90;;;;;;5043815;28;20025;-72
2022/06/20 01:34:37;;;;;;;10.15;2.90;;;17.00;99.90;;;;;;5044857;28;20032;-72
2022/06/20 01:37:25;;;;;;;9.32;2.60;;;17.10;99.90;;;;;;5043053;28;20107;-71
2022/06/20 01:39:54;;;;;;;10.27;2.53;;;17.10;99.90;;;;;;5043720;28;20098;-72
2022/06/20 01:42:21;;;;;;;13.90;2.85;;;17.10;99.90;;;;;;5042054;28;20623;-71
2022/06/20 01:45:02;;;;;;;10.77;2.58;;;17.10;99.90;;;;;;5042261;28;20521;-72
2022/06/20 01:47:28;;;;;;;12.77;2.65;;;16.90;99.90;;;;;;5043829;28;20017;-71
2022/06/20 01:50:00;;;;;;;9.65;3.13;;;16.90;99.90;;;;;;5042238;28;20036;-72
2022/06/20 01:52:38;;;;;;;10.02;2.58;;;16.90;99.90;;;;;;5041503;28;20470;-72
2022/06/20 01:55:12;;;;;;;12.25;2.63;;;17.00;99.90;;;;;;5035149;28;20017;-72
2022/06/20 01:57:42;;;;;;;9.20;2.75;;;17.00;99.90;;;;;;5032887;28;20033;-72
2022/06/20 02:00:20;;;;;;;10.68;3.13;;;17.00;99.90;;;;;;5036181;28;20109;-72
2022/06/20 02:02:50;;;;;;;23.35;3.60;;;17.00;99.90;;;;;;5067261;28;20108;-72
2022/06/20 02:05:22;;;;;;;8.88;2.63;;;17.00;99.90;;;;;;5060214;28;20031;-73
2022/06/20 02:07:48;;;;;;;18.67;3.30;;;17.00;99.90;;;;;;5058699;28;20398;-72
2022/06/20 02:10:21;;;;;;;8.30;2.20;;;16.90;99.90;;;;;;5069113;28;20025;-72
2022/06/20 02:12:49;;;;;;;15.75;3.17;;;16.90;99.90;;;;;;5044216;28;20021;-72
2022/06/20 02:15:18;;;;;;;8.75;2.53;;;16.90;99.90;;;;;;5046247;28;20056;-71
2022/06/20 02:17:46;;;;;;;8.60;2.70;;;16.90;99.90;;;;;;5058668;28;20021;-72
2022/06/20 02:20:18;;;;;;;12.48;2.80;;;16.90;99.90;;;;;;5067210;28;20104;-73
2022/06/20 02:22:46;;;;;;;8.25;2.00;;;16.80;99.90;;;;;;5069277;28;20116;-73
2022/06/20 02:25:16;;;;;;;10.23;2.97;;;16.80;99.90;;;;;;5061225;28;20024;-73
2022/06/20 02:27:50;;;;;;;10.80;2.65;;;16.90;99.90;;;;;;5058788;28;20040;-73
2022/06/20 02:30:16;;;;;;;9.68;2.10;;;16.80;99.90;;;;;;5069331;28;20111;-73
2022/06/20 02:32:46;;;;;;;9.93;2.20;;;16.90;99.90;;;;;;5067447;28;20048;-72
2022/06/20 02:35:16;;;;;;;11.13;2.30;;;16.80;99.90;;;;;;5061211;28;20035;-73
2022/06/20 02:37:43;;;;;;;9.15;2.38;;;16.90;99.90;;;;;;5055777;28;20025;-73
2022/06/20 02:40:13;;;;;;;9.18;2.50;;;16.90;99.90;;;;;;5068269;28;20036;-72
2022/06/20 02:42:46;;;;;;;12.18;2.28;;;16.90;99.90;;;;;;5056212;28;20027;-72
2022/06/20 02:45:12;;;;;;;9.00;2.63;;;16.80;99.90;;;;;;5051553;28;20128;-72
2022/06/20 02:47:41;;;;;;;10.10;2.83;;;16.80;99.90;;;;;;5056708;28;20354;-72
2022/06/20 02:50:08;;;;;;;9.70;2.05;;;16.80;99.90;;;;;;5071385;28;20377;-72
2022/06/20 02:53:05;;;;;;;6.55;2.00;;;16.80;99.90;;;;;;5055303;28;20024;-73
2022/06/20 02:55:34;;;;;;;13.18;2.75;;;16.80;99.90;;;;;;5036392;28;20043;-73
2022/06/20 02:58:11;;;;;;;9.80;2.28;;;16.70;99.90;;;;;;5042411;28;20035;-72
2022/06/20 03:00:43;;;;;;;11.23;2.28;;;16.50;99.90;;;;;;5041287;28;20075;-72
2022/06/20 03:03:31;;;;;;;9.07;2.30;;;16.60;99.90;;;;;;5039981;28;20037;-72
2022/06/20 03:05:57;;;;;;;10.40;2.50;;;16.50;99.90;;;;;;5044413;28;20470;-72
2022/06/20 03:08:24;;;;;;;9.25;2.30;;;16.50;99.90;;;;;;5042641;28;20017;-73
2022/06/20 03:10:52;;;;;;;9.38;2.30;;;16.50;99.90;;;;;;5043510;28;20053;-73
2022/06/20 03:13:21;;;;;;;6.68;2.53;;;16.50;99.90;;;;;;5041136;28;20076;-72
2022/06/20 03:15:49;;;;;;;7.85;2.25;;;16.50;99.90;;;;;;5045150;28;20018;-72
2022/06/20 03:18:17;;;;;;;10.55;2.40;;;16.60;99.90;;;;;;5043817;28;20358;-72
2022/06/20 03:20:44;;;;;;;13.35;3.20;;;16.60;99.90;;;;;;5041845;28;20033;-73
2022/06/20 03:23:32;;;;;;;10.43;2.78;;;16.70;99.90;;;;;;5042880;28;20132;-72
2022/06/20 03:26:01;;;;;;;6.38;2.47;;;16.70;99.90;;;;;;5042862;28;20032;-72
2022/06/20 03:28:29;;;;;;;12.30;2.35;;;16.80;99.90;;;;;;5047010;28;20021;-72
2022/06/20 03:30:58;;;;;;;10.77;2.38;;;16.80;99.90;;;;;;5043044;28;20074;-72
2022/06/20 03:33:24;;;;;;;9.45;2.30;;;16.80;99.90;;;;;;5043176;28;20047;-72
2022/06/20 03:36:10;;;;;;;7.15;3.03;;;16.80;99.90;;;;;;5041317;28;20022;-72
2022/06/20 03:38:37;;;;;;;8.75;2.15;;;16.80;99.90;;;;;;5042869;28;20021;-72
2022/06/20 03:41:07;;;;;;;8.88;2.55;;;16.90;99.90;;;;;;5043647;28;20520;-72
2022/06/20 03:43:34;;;;;;;9.07;2.50;;;16.90;99.90;;;;;;5047082;28;20108;-72
2022/06/20 03:46:06;;;;;;;8.32;2.20;;;16.80;99.90;;;;;;5045556;28;20043;-72
2022/06/20 03:48:43;;;;;;;10.50;2.40;;;16.80;99.90;;;;;;5044843;28;20010;-72
2022/06/20 03:51:14;;;;;;;13.82;2.88;;;16.80;99.90;;;;;;5045458;28;20123;-73
2022/06/20 03:54:20;;;;;;;7.18;2.53;;;16.90;99.90;;;;;;5045706;28;20082;-73
2022/06/20 03:57:00;;;;;;;7.95;2.35;;;16.90;99.90;;;;;;5033167;28;20021;-73
2022/06/20 03:59:41;;;;;;;8.90;2.83;;;16.90;99.90;;;;;;5044586;28;20071;-73
2022/06/20 04:02:18;;;;;;;7.85;1.92;;;16.90;99.90;;;;;;5045233;28;20080;-73
2022/06/20 04:05:17;;;;;;;9.60;2.03;;;16.80;99.90;;;;;;5044272;28;20081;-72
2022/06/20 04:08:19;;;;;;;8.57;2.30;;;16.90;99.90;;;;;;5046675;28;20025;-72
2022/06/20 04:10:59;;;;;;;8.02;2.38;;;16.90;99.90;;;;;;5042696;28;20532;-73
2022/06/20 04:13:33;;;;;;;8.73;2.70;;;16.90;99.90;;;;;;5044474;28;20029;-73
2022/06/20 04:16:23;;;;;;;7.85;1.90;;;17.00;99.90;;;;;;5044042;28;20020;-72
2022/06/20 04:18:57;;;;;;;7.25;2.15;;;17.00;99.90;;;;;;5044362;28;20025;-73
2022/06/20 04:21:46;;;;;;;8.10;2.20;;;16.90;99.90;;;;;;5045428;28;20458;-73
2022/06/20 04:24:30;;;;;;;6.32;2.33;;;16.90;99.90;;;;;;5045731;28;20025;-71
2022/06/20 04:27:03;;;;;;;10.30;2.35;;;16.90;99.90;;;;;;5045406;28;20025;-73
2022/06/20 04:29:47;;;;;;;7.38;2.15;;;16.90;99.90;;;;;;5044512;28;20083;-73
2022/06/20 04:32:37;;;;;;;11.23;2.45;;;16.90;99.90;;;;;;5054648;28;20040;-73
2022/06/20 04:35:22;;;;;;;7.28;2.25;;;16.90;99.90;;;;;;5034354;28;20493;-73
2022/06/20 04:38:20;;;;;;;9.88;2.35;;;17.00;99.90;;;;;;5042340;28;20025;-73
2022/06/20 04:40:57;;;;;;;7.22;2.03;;;17.00;99.90;;;;;;5048147;28;20041;-73
2022/06/20 04:43:41;;;;;;;8.65;2.50;;;17.00;99.90;;;;;;5034263;28;20034;-73
2022/06/20 04:46:15;;;;;;;10.07;2.20;;;17.00;99.90;;;;;;5034455;28;20043;-73
2022/06/20 04:48:46;;;;;;;7.38;2.05;;;17.00;99.90;;;;;;5053950;28;20056;-73
2022/06/20 04:51:17;;;;;;;8.80;2.22;;;17.10;99.90;;;;;;5054385;28;20477;-73
2022/06/20 04:53:46;;;;;;;7.72;2.15;;;17.10;99.90;;;;;;5053789;28;20021;-74
2022/06/20 04:56:14;;;;;;;7.35;1.90;;;17.00;99.90;;;;;;5054044;28;20547;-73
2022/06/20 04:58:49;;;;;;;7.80;2.15;;;17.00;99.90;;;;;;5053052;28;20083;-73
2022/06/20 05:01:16;;;;;;;7.38;2.08;;;17.00;99.90;;;;;;5053721;28;20473;-73
2022/06/20 05:03:49;;;;;;;9.38;2.50;;;17.00;99.90;;;;;;5053203;28;20033;-73
2022/06/20 05:06:20;;;;;;;14.23;2.33;;;16.90;99.90;;;;;;5053344;28;20083;-73
2022/06/20 05:08:50;;;;;;;5.88;1.77;;;17.00;99.90;;;;;;5054014;28;20039;-74
2022/06/20 05:11:30;;;;;;;9.43;2.63;;;17.00;99.90;;;;;;5053120;28;20116;-73
2022/06/20 05:14:06;;;;;;;10.43;2.75;;;17.00;99.90;;;;;;5074169;28;20044;-73
2022/06/20 05:16:37;;;;;;;11.85;2.70;;;17.00;99.90;;;;;;5059771;28;20029;-73
2022/06/20 05:19:08;;;;;;;6.15;1.63;;;17.00;99.90;;;;;;5051983;28;20025;-73
2022/06/20 05:21:40;;;;;;;8.52;2.30;;;17.00;99.90;;;;;;5052885;28;20067;-72
2022/06/20 05:24:12;;;;;;;7.78;2.03;;;17.00;99.90;;;;;;5054244;28;20036;-73
2022/06/20 05:26:41;;;;;;;9.23;2.20;;;17.00;99.90;;;;;;5052766;28;20066;-73
2022/06/20 05:29:21;;;;;;;7.32;2.08;;;17.00;99.90;;;;;;5053848;28;20025;-72
2022/06/20 05:31:52;;;;;;;7.32;1.90;;;17.00;99.90;;;;;;5051505;28;20024;-73
2022/06/20 05:34:25;;;;;;;9.35;2.40;;;17.00;99.90;;;;;;5039068;28;20030;-73
2022/06/20 05:37:12;;;;;;;10.27;2.63;;;17.00;99.90;;;;;;5033986;28;20021;-73
2022/06/20 05:40:04;;;;;;;11.90;3.00;;;17.10;99.90;;;;;;5033802;28;20065;-71
2022/06/20 05:42:29;;;;;;;11.50;2.17;;;17.00;99.90;;;;;;5041796;28;20041;-73
2022/06/20 05:44:56;;;;;;;9.10;2.17;;;17.10;99.90;;;;;;5033506;28;20110;-73
2022/06/20 05:47:45;;;;;;;9.93;2.03;;;17.20;99.90;;;;;;5032322;28;20022;-73
2022/06/20 05:50:13;;;;;;;8.63;2.15;;;17.20;99.90;;;;;;5036792;28;20028;-72
2022/06/20 05:52:40;;;;;;;8.32;2.35;;;17.20;99.90;;;;;;5053253;28;20067;-72
2022/06/20 05:55:21;;;;;;;8.63;2.03;;;17.10;99.90;;;;;;5053421;28;20021;-73
2022/06/20 05:57:48;;;;;;;11.20;2.28;;;17.00;99.90;;;;;;5050837;28;20470;-73
2022/06/20 06:00:19;;;;;;;8.52;2.17;;;17.10;99.90;;;;;;5041573;28;20029;-73
2022/06/20 06:03:03;;;;;;;8.30;2.35;;;17.10;99.90;;;;;;5052254;28;20025;-73
2022/06/20 06:05:39;;;;;;;8.48;2.20;;;17.10;99.90;;;;;;5036037;28;20040;-73
2022/06/20 06:08:28;;;;;;;8.93;2.20;;;17.10;99.90;;;;;;5053253;28;20021;-73
2022/06/20 06:10:59;;;;;;;12.25;2.85;;;17.00;99.90;;;;;;5052084;28;20471;-73
2022/06/20 06:13:47;;;;;;;13.77;3.55;;;17.10;99.90;;;;;;5072063;28;20126;-73
2022/06/20 06:19:17;;;;;;;5.72;2.28;;;17.20;99.90;;;;;;5068946;28;20032;-73
2022/06/20 06:21:46;;;;;;;6.53;2.50;;;17.30;99.90;;;;;;5051301;28;20477;-73
2022/06/20 06:24:15;;;;;;;11.40;2.42;;;17.20;99.90;;;;;;5052817;28;20092;-73
2022/06/20 06:26:43;;;;;;;10.27;2.80;;;17.20;99.90;;;;;;5052790;28;20039;-73
2022/06/20 06:29:16;;;;;;;7.03;1.95;;;17.30;99.90;;;;;;5051559;28;20449;-73
2022/06/20 06:31:42;;;;;;;10.85;2.83;;;17.40;99.90;;;;;;5051172;28;20048;-71
2022/06/20 06:34:22;;;;;;;7.70;2.67;;;17.40;99.90;;;;;;5051862;28;20056;-73
2022/06/20 06:36:54;;;;;;;9.13;2.40;;;17.40;99.90;;;;;;5052737;28;20013;-73
2022/06/20 06:39:24;;;;;;;9.18;2.17;;;17.60;99.90;;;;;;5052964;28;20033;-74
2022/06/20 06:41:54;;;;;;;9.85;2.47;;;17.60;99.90;;;;;;5039650;28;20396;-73
2022/06/20 06:44:33;;;;;;;10.50;2.67;;;17.80;99.90;;;;;;5032834;28;20048;-72
2022/06/20 06:47:00;;;;;;;10.77;2.67;;;17.90;99.90;;;;;;5032363;28;20030;-73
2022/06/20 06:49:42;;;;;;;12.15;2.30;;;18.10;99.90;;;;;;5031752;28;20044;-73
2022/06/20 06:52:43;;;;;;;6.05;2.28;;;18.10;99.90;;;;;;5047938;28;20036;-73
2022/06/20 06:55:39;;;;;;;5.90;2.00;;;18.10;99.90;;;;;;5049166;28;20024;-73
2022/06/20 06:58:05;;;;;;;4.90;1.73;;;18.20;99.90;;;;;;5050190;28;20040;-74
2022/06/20 07:00:44;;;;;;;10.38;1.92;;;18.20;99.90;;;;;;5041924;28;20038;-73
2022/06/20 07:03:10;;;;;;;11.60;2.30;;;18.20;99.90;;;;;;5043215;28;20040;-72
2022/06/20 07:05:40;;;;;;;13.10;2.47;;;18.30;99.90;;;;;;5056798;28;20017;-73
2022/06/20 07:08:19;;;;;;;7.45;1.77;;;18.40;99.90;;;;;;5072387;28;20021;-74
2022/06/20 07:11:10;;;;;;;9.95;2.28;;;18.50;99.90;;;;;;5071829;28;20045;-73
2022/06/20 07:13:48;;;;;;;5.25;1.70;;;18.60;99.90;;;;;;5072809;28;20158;-73
2022/06/20 07:16:35;;;;;;;7.25;2.05;;;18.50;99.90;;;;;;5037153;28;20470;-73
2022/06/20 07:19:03;;;;;;;8.18;1.77;;;18.60;99.90;;;;;;5036584;28;20377;-73
2022/06/20 07:21:32;;;;;;;5.00;1.50;;;18.60;99.90;;;;;;5050026;28;20125;-72
2022/06/20 07:24:01;;;;;;;8.57;2.03;;;18.50;99.90;;;;;;5055408;28;20104;-73
2022/06/20 07:26:32;;;;;;;7.72;1.75;;;18.60;99.90;;;;;;5054626;28;20469;-73
2022/06/20 07:29:14;;;;;;;7.22;1.88;;;18.60;99.90;;;;;;5056574;28;20021;-73
2022/06/20 07:31:47;;;;;;;7.55;1.67;;;18.60;99.90;;;;;;5056016;28;20033;-73
2022/06/20 07:34:35;;;;;;;4.55;1.73;;;18.50;99.90;;;;;;5035620;28;20057;-73
2022/06/20 07:37:09;;;;;;;6.10;1.90;;;18.50;99.90;;;;;;5035882;28;20104;-73
2022/06/20 07:39:44;;;;;;;7.78;1.70;;;18.50;99.90;;;;;;5036205;28;20030;-73
2022/06/20 07:42:17;;;;;;;10.55;2.13;;;18.60;99.90;;;;;;5034438;28;20017;-73
2022/06/20 07:44:55;;;;;;;9.65;1.90;;;18.70;99.90;;;;;;5036098;28;20042;-73
2022/06/20 07:47:32;;;;;;;5.88;1.65;;;18.80;99.90;;;;;;5038546;28;20117;-72
2022/06/20 07:50:05;;;;;;;7.43;2.10;;;18.90;99.90;;;;;;5036180;28;20028;-73
2022/06/20 07:52:44;;;;;;;5.03;2.10;;;19.00;99.90;;;;;;5047163;28;20041;-72
2022/06/20 07:55:14;;;;;;;7.95;2.00;;;19.20;99.90;;;;;;5055491;28;20029;-73
2022/06/20 07:57:47;;;;;;;10.80;2.28;;;19.30;99.90;;;;;;5050246;28;20029;-73
2022/06/20 08:00:15;;;;;;;8.75;1.77;;;19.30;99.90;;;;;;5035082;28;20060;-73
2022/06/20 08:02:55;;;;;;;5.45;1.83;;;19.30;99.90;;;;;;5041595;28;20036;-73
2022/06/20 08:05:26;;;;;;;6.28;2.10;;;19.20;99.90;;;;;;5053398;28;20116;-72
2022/06/20 08:07:58;;;;;;;4.68;2.13;;;19.30;99.90;;;;;;5028885;28;20025;-72
2022/06/20 08:10:39;;;;;;;6.53;2.50;;;19.30;99.90;;;;;;5043892;28;20031;-73
2022/06/20 08:13:14;;;;;;;8.93;2.17;;;19.50;99.90;;;;;;5047022;28;20386;-71
2022/06/20 08:15:44;;;;;;;3.72;1.65;;;19.40;99.90;;;;;;5047959;28;20032;-71
2022/06/20 08:18:10;;;;;;;5.50;1.92;;;19.40;99.90;;;;;;5048641;28;20021;-72
2022/06/20 08:20:42;;;;;;;4.80;2.00;;;19.30;99.90;;;;;;5040707;28;20037;-72
2022/06/20 08:23:34;;;;;;;5.22;2.17;;;19.30;99.90;;;;;;5048811;28;20017;-74
2022/06/20 08:26:03;;;;;;;6.00;1.60;;;19.30;99.90;;;;;;5067422;28;20036;-74
2022/06/20 08:28:55;;;;;;;7.00;1.98;;;19.40;99.90;;;;;;5058942;28;20274;-74
2022/06/20 08:31:36;;;;;;;7.15;2.25;;;19.70;99.90;;;;;;5068524;28;20021;-74
2022/06/20 08:34:14;;;;;;;5.03;1.63;;;19.80;99.90;;;;;;5053068;28;20029;-73
2022/06/20 08:37:03;;;;;;;6.65;2.00;;;19.70;99.90;;;;;;5065045;28;20033;-74
2022/06/20 08:39:50;;;;;;;5.50;2.08;;;19.60;99.90;;;;;;5054022;28;20030;-74
2022/06/20 08:42:37;;;;;;;4.65;1.92;;;19.60;99.90;;;;;;5043479;28;20029;-73
2022/06/20 08:45:17;;;;;;;6.30;1.60;;;19.80;99.90;;;;;;5053281;28;20033;-74
2022/06/20 08:48:04;;;;;;;9.05;1.45;;;20.00;99.90;;;;;;5050764;28;20473;-73
2022/06/20 08:51:07;;;;;;;3.33;1.60;;;20.30;99.90;;;;;;5065577;28;20412;-73
2022/06/20 08:53:52;;;;;;;;;;;20.70;99.90;;;;;;5070550;28;20027;-71
2022/06/20 08:56:45;;;;;;;5.97;1.75;;;20.90;98.90;;;;;;5045457;28;19935;-73
2022/06/20 08:59:24;;;;;;;;;;;21.30;97.70;;;;;;5059462;28;20040;-71
2022/06/20 09:02:10;;;;;;;5.70;1.50;;;21.70;98.10;;;;;;5060279;28;19912;-74
2022/06/20 09:04:39;;;;;;;5.82;1.88;;;21.60;96.90;;;;;;5068676;28;20036;-73
2022/06/20 09:07:47;;;;;;;3.45;1.80;;;21.50;96.50;;;;;;5059385;28;20100;-73
2022/06/20 09:10:13;;;;;;;5.28;1.55;;;21.40;96.60;;;;;;5055769;28;20069;-73
2022/06/20 09:12:56;;;;;;;6.43;1.40;;;21.00;96.80;;;;;;5061630;28;20032;-73
2022/06/20 09:15:35;;;;;;;6.45;1.50;;;20.80;97.00;;;;;;5056930;28;20067;-73
2022/06/20 09:18:19;;;;;;;5.45;1.50;;;21.10;98.10;;;;;;5053752;28;20029;-73
2022/06/20 09:20:56;;;;;;;2.95;1.63;;;21.50;97.40;;;;;;5052365;28;20119;-73
2022/06/20 09:23:43;;;;;;;6.40;1.83;;;22.00;96.40;;;;;;5067672;28;20038;-74
2022/06/20 09:26:19;;;;;;;5.63;1.48;;;22.40;95.30;;;;;;5055984;28;20036;-73
2022/06/20 09:29:09;;;;;;;4.68;1.50;;;22.70;95.20;;;;;;5062901;28;20059;-73
2022/06/20 09:31:47;;;;;;;6.82;1.77;;;23.00;94.80;;;;;;5068700;28;20020;-72
2022/06/20 09:34:28;;;;;;;5.30;1.85;;;22.70;94.40;;;;;;5056371;28;20028;-73
2022/06/20 09:37:12;;;;;;;5.80;2.15;;;22.70;94.70;;;;;;5061502;28;20492;-73
2022/06/20 09:40:07;;;;;;;5.22;1.90;;;22.40;95.20;;;;;;5058450;28;20039;-74
2022/06/20 09:43:03;;;;;;;4.35;1.50;;;22.00;93.80;;;;;;5058474;28;20033;-73
2022/06/20 09:45:41;;;;;;;4.60;1.90;;;21.80;94.90;;;;;;5056670;28;20095;-73
2022/06/20 09:48:31;;;;;;;3.85;1.40;;;22.00;93.80;;;;;;5053657;28;20025;-72
2022/06/20 09:51:18;;;;;;;5.60;2.00;;;22.50;93.80;;;;;;5062206;28;20388;-71
2022/06/20 09:54:02;;;;;;;4.47;1.88;;;22.30;93.90;;;;;;5056984;28;20028;-73
2022/06/20 09:56:49;;;;;;;5.82;1.92;;;22.20;93.30;;;;;;5059089;28;20029;-72
2022/06/20 09:59:51;;;;;;;6.80;2.00;;;22.10;93.80;;;;;;5054847;28;20461;-73
2022/06/20 10:02:25;;;;;;;4.18;2.10;;;21.90;93.70;;;;;;5040533;28;20481;-73
2022/06/20 10:05:17;;;;;;;4.57;1.90;;;21.90;94.90;;;;;;5061861;28;20033;-73
2022/06/20 10:08:01;;;;;;;7.13;2.17;;;22.10;94.40;;;;;;5052942;28;20033;-73
2022/06/20 10:10:42;;;;;;;4.13;1.90;;;22.50;93.80;;;;;;5039620;28;20036;-70
2022/06/20 10:13:32;;;;;;;6.32;1.95;;;22.50;94.10;;;;;;5064321;28;20020;-73
2022/06/20 10:16:32;;;;;;;4.97;1.90;;;23.00;92.70;;;;;;5053893;28;20064;-73
2022/06/20 10:19:12;;;;;;;5.47;1.88;;;23.30;93.70;;;;;;5065250;28;20029;-73
2022/06/20 10:21:38;;;;;;;4.63;2.03;;;23.60;92.70;;;;;;5051293;28;20025;-73
2022/06/20 10:24:10;;;;;;;3.45;2.38;;;23.70;91.70;;;;;;5068720;28;20052;-73
2022/06/20 10:27:05;;;;;;;3.70;1.98;;;24.00;91.70;;;;;;5062658;28;20025;-73
2022/06/20 10:29:50;;;;;;;3.90;1.80;;;23.80;90.20;;;;;;5049024;28;20033;-72
2022/06/20 10:32:19;;;;;;;5.13;2.33;;;23.40;91.40;;;;;;5053965;28;20028;-73
2022/06/20 10:35:00;;;;;;;6.93;2.20;;;23.20;91.30;;;;;;5046498;28;20029;-72
2022/06/20 10:37:36;;;;;;;6.30;2.60;;;23.30;92.10;;;;;;5054587;28;20031;-72
2022/06/20 10:40:32;;;;;;;4.85;1.83;;;23.60;91.60;;;;;;5036229;28;20040;-72
2022/06/20 10:43:10;;;;;;;9.05;2.80;;;23.30;90.90;;;;;;5048385;28;20021;-73
2022/06/20 10:45:42;;;;;;;4.20;2.22;;;23.00;91.50;;;;;;5051969;28;20477;-73
2022/06/20 10:48:17;;;;;;;5.53;2.00;;;23.10;92.50;;;;;;5057254;28;20062;-73
2022/06/20 10:51:03;;;;;;;5.78;2.70;;;23.40;92.20;;;;;;5061923;28;20036;-73
2022/06/20 10:53:45;;;;;;;4.88;2.65;;;23.60;91.30;;;;;;5067341;28;20032;-73
2022/06/20 10:56:15;;;;;;;6.57;2.47;;;23.40;91.10;;;;;;5041836;28;20047;-72
2022/06/20 10:59:10;;;;;;;5.40;2.88;;;23.30;91.80;;;;;;5055896;28;20041;-73
2022/06/20 11:01:51;;;;;;;6.93;2.72;;;23.60;90.80;;;;;;5059240;28;20095;-72
2022/06/20 11:04:52;;;;;;;4.97;2.92;;;24.10;91.10;;;;;;5054292;28;20029;-73
2022/06/20 11:07:40;;;;;;;4.35;2.83;;;24.20;90.60;;;;;;5061545;28;20338;-73
2022/06/20 11:10:36;;;;;;;3.13;2.63;;;24.00;89.20;;;;;;5048913;28;20082;-73
2022/06/20 11:13:22;;;;;;;5.55;2.65;;;23.60;88.80;;;;;;5052760;28;20470;-72
2022/06/20 11:15:57;;;;;;;5.38;2.78;;;23.40;90.10;;;;;;5046406;28;20032;-73
2022/06/20 11:18:42;;;;;;;4.53;2.45;;;23.50;90.20;;;;;;5049625;28;20021;-72
2022/06/20 11:21:39;;;;;;;5.85;2.90;;;23.60;90.00;;;;;;5046890;28;20094;-72
2022/06/20 11:24:32;;;;;;;5.95;2.28;;;23.80;89.90;;;;;;5042850;28;20090;-73
2022/06/20 11:27:10;;;;;;;7.05;2.47;;;23.80;89.10;;;;;;5053082;28;20481;-73
2022/06/20 11:30:14;;;;;;;5.97;2.92;;;23.60;88.50;;;;;;5045190;28;20589;-72
2022/06/20 11:33:07;;;;;;;9.50;3.42;;;23.70;89.10;;;;;;5054894;28;20052;-72
2022/06/20 11:35:46;;;;;;;6.05;3.10;;;24.00;89.70;;;;;;5039271;28;20030;-73
2022/06/20 11:38:35;;;;;;;4.30;2.92;;;24.10;87.30;;;;;;5049813;28;20024;-72
2022/06/20 11:41:05;;;;;;;6.53;2.30;;;24.60;87.40;;;;;;5045021;28;20041;-73
2022/06/20 11:43:46;;;;;;;4.05;2.53;;;24.50;88.70;;;;;;5053971;28;20037;-73
2022/06/20 11:46:46;;;;;;;6.50;2.90;;;24.50;85.50;;;;;;5049816;28;20093;-73
2022/06/20 11:49:43;;;;;;;4.85;3.20;;;24.70;86.90;;;;;;5050036;28;20035;-72
2022/06/20 11:52:20;;;;;;;4.78;3.03;;;24.80;86.80;;;;;;5047962;28;20028;-72
2022/06/20 11:55:09;;;;;;;6.22;3.08;;;24.60;86.80;;;;;;5045222;28;20036;-73
2022/06/20 11:57:49;;;;;;;6.28;3.10;;;24.20;89.50;;;;;;5044842;28;20033;-73
2022/06/20 12:00:21;;;;;;;7.13;3.60;;;24.00;90.20;;;;;;5046461;28;20037;-73
2022/06/20 12:03:16;;;;;;;11.18;4.00;;;24.40;88.80;;;;;;5050515;28;20021;-73
2022/06/20 12:06:06;;;;;;;8.07;3.30;;;24.80;89.30;;;;;;5052379;28;20060;-73
2022/06/20 12:08:36;;;;;;;10.27;3.58;;;25.10;87.70;;;;;;5052450;28;20100;-73
2022/06/20 12:11:15;;;;;;;7.85;3.30;;;25.30;85.10;;;;;;5049159;28;20025;-73
2022/06/20 12:14:10;;;;;;;6.97;3.10;;;25.30;83.30;;;;;;5057943;28;20078;-73
2022/06/20 12:16:48;;;;;;;5.65;3.17;;;25.00;85.00;;;;;;5055384;28;20098;-73
2022/06/20 12:25:39;;;;;;;7.57;3.17;;;25.00;87.50;;;;;;5061826;28;20032;-73
2022/06/20 12:28:41;;;;;;;6.60;3.35;;;25.10;88.90;;;;;;5050182;28;20044;-73
2022/06/20 12:31:21;;;;;;;8.98;3.03;;;25.40;85.60;;;;;;5054276;28;20029;-74
2022/06/20 12:34:14;;;;;;;6.20;2.35;;;25.20;83.50;;;;;;5057068;28;20013;-73
2022/06/20 12:36:48;;;;;;;6.13;3.03;;;25.40;85.70;;;;;;5056071;28;20026;-73
2022/06/20 12:39:21;;;;;;;7.18;3.17;;;25.60;85.00;;;;;;5051940;28;20044;-73
2022/06/20 12:41:54;;;;;;;5.30;2.60;;;25.90;86.10;;;;;;5054284;28;20028;-73
2022/06/20 12:44:35;;;;;;;;;;;26.00;83.80;;;;;;5065938;28;20040;-73
2022/06/20 12:47:38;;;;;;;5.22;2.08;;;25.50;84.30;;;;;;5049490;28;20365;-73
2022/06/20 12:50:18;;;;;;;5.30;2.80;;;25.50;83.10;;;;;;5070089;28;20032;-74
2022/06/20 12:53:02;;;;;;;5.57;2.63;;;25.60;80.60;;;;;;5059383;28;20055;-73
2022/06/20 12:55:36;;;;;;;7.97;2.75;;;25.80;82.70;;;;;;5055605;28;20052;-73
2022/06/20 12:58:25;;;;;;;8.35;2.42;;;26.10;83.40;;;;;;5050319;28;20036;-72
2022/06/20 13:00:57;;;;;;;6.47;2.72;;;26.30;81.30;;;;;;5043560;28;20086;-73
2022/06/20 13:03:42;;;;;;;6.30;2.47;;;26.10;81.40;;;;;;5049057;28;20025;-73
2022/06/20 13:06:37;;;;;;;5.90;2.28;;;26.10;79.90;;;;;;5055275;28;20536;-73
2022/06/20 13:09:10;;;;;;;8.13;3.03;;;25.80;83.40;;;;;;5046059;28;20021;-73
2022/06/20 13:11:59;;;;;;;6.72;2.72;;;25.40;84.40;;;;;;5055755;28;20489;-73
2022/06/20 13:14:44;;;;;;;10.57;2.83;;;25.20;85.80;;;;;;5057474;28;20107;-73
2022/06/20 13:17:39;;;;;;;5.28;2.53;;;24.90;86.80;;;;;;5056084;28;20021;-73
2022/06/20 13:20:40;;;;;;;5.50;2.17;;;24.70;86.40;;;;;;5037841;28;20059;-73
2022/06/20 13:23:39;;;;;;;5.35;2.03;;;25.20;86.80;;;;;;5074493;28;20075;-73
2022/06/20 13:26:26;;;;;;;5.13;2.45;;;25.40;83.70;;;;;;5041227;28;20037;-73
2022/06/20 13:28:58;;;;;;;6.35;2.03;;;25.30;84.20;;;;;;5068101;28;20374;-73
2022/06/20 13:31:36;;;;;;;7.70;2.60;;;25.20;82.70;;;;;;5065858;28;20028;-73
2022/06/20 13:34:43;;;;;;;5.07;2.45;;;25.50;84.50;;;;;;5040402;28;20063;-73
2022/06/20 13:37:20;;;;;;;4.25;2.10;;;25.40;83.30;;;;;;5054209;28;20512;-73
2022/06/20 13:39:52;;;;;;;3.40;1.90;;;25.20;80.80;;;;;;5054300;28;20044;-73
2022/06/20 13:42:31;;;;;;;8.43;2.03;;;25.10;84.60;;;;;;5049307;28;20091;-72
2022/06/20 13:45:13;;;;;;;5.07;2.05;;;24.90;83.80;;;;;;5061053;28;20728;-73
2022/06/20 13:48:03;;;;;;;4.30;1.77;;;25.30;84.40;;;;;;5048638;28;20028;-73
2022/06/20 13:50:34;;;;;;;4.68;2.17;;;25.60;83.30;;;;;;5047330;28;20024;-73